sensor_id;sensor_type;location;lat;lon;timestamp;P1;durP1;ratioP1;P2;durP2;ratioP2
19758;SDS011;10038;42.662;23.278;2023-01-06T00:01:58;16.80;;;5.43;;
19758;SDS011;10038;42.662;23.278;2023-01-06T00:04:26;9.07;;;5.53;;
19758;SDS011;10038;42.662;23.278;2023-01-06T00:06:52;9.50;;;4.90;;
19758;SDS011;10038;42.662;23.278;2023-01-06T00:09:19;6.80;;;4.00;;
19758;SDS011;10038;42.662;23.278;2023-01-06T00:11:45;8.30;;;5.40;;
19758;SDS011;10038;42.662;23.278;2023-01-06T00:14:13;8.17;;;5.17;;
19758;SDS011;10038;42.662;23.278;2023-01-06T00:16:40;5.83;;;3.83;;
19758;SDS011;10038;42.662;23.278;2023-01-06T00:19:08;7.93;;;4.20;;
19758;SDS011;10038;42.662;23.278;2023-01-06T00:21:35;10.77;;;4.97;;
19758;SDS011;10038;42.662;23.278;2023-01-06T00:24:02;9.00;;;4.70;;
19758;SDS011;10038;42.662;23.278;2023-01-06T00:26:28;8.60;;;4.80;;
19758;SDS011;10038;42.662;23.278;2023-01-06T00:28:55;9.03;;;4.40;;
19758;SDS011;10038;42.662;23.278;2023-01-06T00:31:23;9.60;;;5.67;;
19758;SDS011;10038;42.662;23.278;2023-01-06T00:33:50;10.80;;;4.53;;
19758;SDS011;10038;42.662;23.278;2023-01-06T00:36:16;8.87;;;5.43;;
19758;SDS011;10038;42.662;23.278;2023-01-06T00:38:46;12.33;;;4.70;;
19758;SDS011;10038;42.662;23.278;2023-01-06T00:41:13;7.70;;;3.83;;
19758;SDS011;10038;42.662;23.278;2023-01-06T00:43:57;6.70;;;4.70;;
19758;SDS011;10038;42.662;23.278;2023-01-06T00:46:26;7.13;;;5.10;;
19758;SDS011;10038;42.662;23.278;2023-01-06T00:48:53;10.83;;;5.30;;
19758;SDS011;10038;42.662;23.278;2023-01-06T00:51:20;6.60;;;3.63;;
19758;SDS011;10038;42.662;23.278;2023-01-06T00:53:46;6.97;;;4.23;;
19758;SDS011;10038;42.662;23.278;2023-01-06T00:56:13;5.43;;;3.77;;
19758;SDS011;10038;42.662;23.278;2023-01-06T00:58:39;6.33;;;4.80;;
19758;SDS011;10038;42.662;23.278;2023-01-06T01:01:06;8.77;;;3.90;;
19758;SDS011;10038;42.662;23.278;2023-01-06T01:03:35;6.83;;;4.20;;
19758;SDS011;10038;42.662;23.278;2023-01-06T01:06:03;6.20;;;4.77;;
19758;SDS011;10038;42.662;23.278;2023-01-06T01:08:30;6.00;;;3.87;;
19758;SDS011;10038;42.662;23.278;2023-01-06T01:11:01;6.70;;;4.00;;
19758;SDS011;10038;42.662;23.278;2023-01-06T01:13:28;6.60;;;4.63;;
19758;SDS011;10038;42.662;23.278;2023-01-06T01:15:54;4.73;;;3.93;;
19758;SDS011;10038;42.662;23.278;2023-01-06T01:18:21;5.00;;;3.50;;
19758;SDS011;10038;42.662;23.278;2023-01-06T01:20:49;6.20;;;4.30;;
19758;SDS011;10038;42.662;23.278;2023-01-06T01:23:16;6.27;;;3.93;;
19758;SDS011;10038;42.662;23.278;2023-01-06T01:25:42;8.70;;;4.20;;
19758;SDS011;10038;42.662;23.278;2023-01-06T01:28:09;6.37;;;3.60;;
19758;SDS011;10038;42.662;23.278;2023-01-06T01:30:35;6.73;;;3.60;;
19758;SDS011;10038;42.662;23.278;2023-01-06T01:33:02;4.23;;;3.63;;
19758;SDS011;10038;42.662;23.278;2023-01-06T01:35:28;5.00;;;3.67;;
19758;SDS011;10038;42.662;23.278;2023-01-06T01:37:56;5.50;;;3.70;;
19758;SDS011;10038;42.662;23.278;2023-01-06T01:40:22;5.63;;;3.83;;
19758;SDS011;10038;42.662;23.278;2023-01-06T01:42:49;5.00;;;4.00;;
19758;SDS011;10038;42.662;23.278;2023-01-06T01:45:17;7.10;;;3.73;;
19758;SDS011;10038;42.662;23.278;2023-01-06T01:47:46;6.20;;;4.07;;
19758;SDS011;10038;42.662;23.278;2023-01-06T01:50:19;4.67;;;2.93;;
19758;SDS011;10038;42.662;23.278;2023-01-06T01:52:47;4.67;;;3.03;;
19758;SDS011;10038;42.662;23.278;2023-01-06T01:55:16;5.27;;;3.60;;
19758;SDS011;10038;42.662;23.278;2023-01-06T01:57:44;3.77;;;2.47;;
19758;SDS011;10038;42.662;23.278;2023-01-06T02:00:12;4.07;;;2.83;;
19758;SDS011;10038;42.662;23.278;2023-01-06T02:02:39;4.00;;;2.87;;
19758;SDS011;10038;42.662;23.278;2023-01-06T02:05:06;6.70;;;3.40;;
19758;SDS011;10038;42.662;23.278;2023-01-06T02:07:33;6.30;;;3.03;;
19758;SDS011;10038;42.662;23.278;2023-01-06T02:10:02;4.67;;;3.23;;
19758;SDS011;10038;42.662;23.278;2023-01-06T02:12:32;3.53;;;2.80;;
19758;SDS011;10038;42.662;23.278;2023-01-06T02:14:59;5.73;;;2.50;;
19758;SDS011;10038;42.662;23.278;2023-01-06T02:17:37;3.63;;;3.00;;
19758;SDS011;10038;42.662;23.278;2023-01-06T02:25:43;3.10;;;2.27;;
19758;SDS011;10038;42.662;23.278;2023-01-06T02:28:28;3.97;;;2.30;;
19758;SDS011;10038;42.662;23.278;2023-01-06T02:31:12;6.40;;;2.80;;
19758;SDS011;10038;42.662;23.278;2023-01-06T02:33:39;2.67;;;1.97;;
19758;SDS011;10038;42.662;23.278;2023-01-06T02:36:10;5.10;;;2.97;;
19758;SDS011;10038;42.662;23.278;2023-01-06T02:38:48;4.70;;;2.17;;
19758;SDS011;10038;42.662;23.278;2023-01-06T02:41:23;2.50;;;2.10;;
19758;SDS011;10038;42.662;23.278;2023-01-06T02:43:55;4.40;;;2.90;;
19758;SDS011;10038;42.662;23.278;2023-01-06T02:46:30;3.73;;;2.40;;
19758;SDS011;10038;42.662;23.278;2023-01-06T02:48:59;7.40;;;3.00;;
19758;SDS011;10038;42.662;23.278;2023-01-06T02:51:32;5.53;;;2.90;;
19758;SDS011;10038;42.662;23.278;2023-01-06T02:54:04;4.17;;;3.00;;
19758;SDS011;10038;42.662;23.278;2023-01-06T02:56:33;3.33;;;2.33;;
19758;SDS011;10038;42.662;23.278;2023-01-06T02:59:03;3.90;;;2.97;;
19758;SDS011;10038;42.662;23.278;2023-01-06T03:01:34;5.53;;;2.80;;
19758;SDS011;10038;42.662;23.278;2023-01-06T03:04:02;3.70;;;2.83;;
19758;SDS011;10038;42.662;23.278;2023-01-06T03:06:29;6.23;;;2.87;;
19758;SDS011;10038;42.662;23.278;2023-01-06T03:08:57;6.37;;;3.27;;
19758;SDS011;10038;42.662;23.278;2023-01-06T03:11:25;4.60;;;2.80;;
19758;SDS011;10038;42.662;23.278;2023-01-06T03:13:54;3.83;;;2.83;;
19758;SDS011;10038;42.662;23.278;2023-01-06T03:16:22;3.50;;;2.90;;
19758;SDS011;10038;42.662;23.278;2023-01-06T03:18:50;4.17;;;2.70;;
19758;SDS011;10038;42.662;23.278;2023-01-06T03:21:19;4.33;;;2.63;;
19758;SDS011;10038;42.662;23.278;2023-01-06T03:23:46;5.03;;;3.17;;
19758;SDS011;10038;42.662;23.278;2023-01-06T03:26:13;4.00;;;2.63;;
19758;SDS011;10038;42.662;23.278;2023-01-06T03:28:40;3.87;;;2.80;;
19758;SDS011;10038;42.662;23.278;2023-01-06T03:31:09;3.70;;;2.67;;
19758;SDS011;10038;42.662;23.278;2023-01-06T03:33:38;3.37;;;2.30;;
19758;SDS011;10038;42.662;23.278;2023-01-06T03:36:10;3.90;;;3.00;;
19758;SDS011;10038;42.662;23.278;2023-01-06T03:38:41;4.60;;;2.60;;
19758;SDS011;10038;42.662;23.278;2023-01-06T03:41:21;5.13;;;3.00;;
19758;SDS011;10038;42.662;23.278;2023-01-06T03:44:10;7.13;;;2.60;;
19758;SDS011;10038;42.662;23.278;2023-01-06T03:46:38;4.20;;;2.30;;
19758;SDS011;10038;42.662;23.278;2023-01-06T03:49:07;4.23;;;2.30;;
19758;SDS011;10038;42.662;23.278;2023-01-06T03:51:38;3.37;;;2.30;;
19758;SDS011;10038;42.662;23.278;2023-01-06T03:54:08;4.63;;;3.17;;
19758;SDS011;10038;42.662;23.278;2023-01-06T03:56:37;3.40;;;2.60;;
19758;SDS011;10038;42.662;23.278;2023-01-06T03:59:05;3.60;;;2.40;;
19758;SDS011;10038;42.662;23.278;2023-01-06T04:01:33;4.00;;;2.60;;
19758;SDS011;10038;42.662;23.278;2023-01-06T04:04:00;3.70;;;2.97;;
19758;SDS011;10038;42.662;23.278;2023-01-06T04:06:28;4.93;;;2.77;;
19758;SDS011;10038;42.662;23.278;2023-01-06T04:08:55;2.53;;;2.10;;
19758;SDS011;10038;42.662;23.278;2023-01-06T04:11:22;3.60;;;2.87;;
19758;SDS011;10038;42.662;23.278;2023-01-06T04:14:06;7.13;;;3.00;;
19758;SDS011;10038;42.662;23.278;2023-01-06T04:16:32;5.80;;;3.00;;
19758;SDS011;10038;42.662;23.278;2023-01-06T04:18:59;4.57;;;2.63;;
19758;SDS011;10038;42.662;23.278;2023-01-06T04:21:25;4.37;;;2.53;;
19758;SDS011;10038;42.662;23.278;2023-01-06T04:23:52;3.47;;;2.30;;
19758;SDS011;10038;42.662;23.278;2023-01-06T04:26:20;6.70;;;3.20;;
19758;SDS011;10038;42.662;23.278;2023-01-06T04:28:46;4.53;;;2.63;;
19758;SDS011;10038;42.662;23.278;2023-01-06T04:31:13;4.23;;;2.40;;
19758;SDS011;10038;42.662;23.278;2023-01-06T04:33:39;4.00;;;2.57;;
19758;SDS011;10038;42.662;23.278;2023-01-06T04:36:06;2.13;;;1.87;;
19758;SDS011;10038;42.662;23.278;2023-01-06T04:38:34;3.53;;;2.30;;
19758;SDS011;10038;42.662;23.278;2023-01-06T04:41:00;3.77;;;1.97;;
19758;SDS011;10038;42.662;23.278;2023-01-06T04:43:28;5.70;;;2.47;;
19758;SDS011;10038;42.662;23.278;2023-01-06T04:45:56;4.47;;;2.43;;
19758;SDS011;10038;42.662;23.278;2023-01-06T04:48:23;4.70;;;2.10;;
19758;SDS011;10038;42.662;23.278;2023-01-06T04:50:58;3.20;;;2.37;;
19758;SDS011;10038;42.662;23.278;2023-01-06T04:53:25;2.33;;;2.00;;
19758;SDS011;10038;42.662;23.278;2023-01-06T04:55:52;4.17;;;2.60;;
19758;SDS011;10038;42.662;23.278;2023-01-06T04:58:19;2.57;;;2.07;;
19758;SDS011;10038;42.662;23.278;2023-01-06T05:00:47;2.43;;;2.23;;
19758;SDS011;10038;42.662;23.278;2023-01-06T05:03:14;5.70;;;2.23;;
19758;SDS011;10038;42.662;23.278;2023-01-06T05:05:41;3.57;;;2.77;;
19758;SDS011;10038;42.662;23.278;2023-01-06T05:08:07;5.13;;;2.50;;
19758;SDS011;10038;42.662;23.278;2023-01-06T05:10:34;7.10;;;2.30;;
19758;SDS011;10038;42.662;23.278;2023-01-06T05:13:01;4.53;;;2.97;;
19758;SDS011;10038;42.662;23.278;2023-01-06T05:15:27;8.77;;;2.57;;
19758;SDS011;10038;42.662;23.278;2023-01-06T05:17:55;4.37;;;1.97;;
19758;SDS011;10038;42.662;23.278;2023-01-06T05:20:21;2.97;;;2.10;;
19758;SDS011;10038;42.662;23.278;2023-01-06T05:22:48;3.93;;;2.90;;
19758;SDS011;10038;42.662;23.278;2023-01-06T05:25:15;2.97;;;2.33;;
19758;SDS011;10038;42.662;23.278;2023-01-06T05:27:41;3.97;;;2.17;;
19758;SDS011;10038;42.662;23.278;2023-01-06T05:30:08;5.40;;;2.60;;
19758;SDS011;10038;42.662;23.278;2023-01-06T05:32:35;8.13;;;4.40;;
19758;SDS011;10038;42.662;23.278;2023-01-06T05:35:04;4.17;;;2.70;;
19758;SDS011;10038;42.662;23.278;2023-01-06T05:37:31;6.83;;;3.37;;
19758;SDS011;10038;42.662;23.278;2023-01-06T05:39:59;5.50;;;2.80;;
19758;SDS011;10038;42.662;23.278;2023-01-06T05:42:26;2.30;;;2.10;;
19758;SDS011;10038;42.662;23.278;2023-01-06T05:44:53;3.40;;;2.53;;
19758;SDS011;10038;42.662;23.278;2023-01-06T05:47:19;6.63;;;2.70;;
19758;SDS011;10038;42.662;23.278;2023-01-06T05:49:46;3.40;;;2.33;;
19758;SDS011;10038;42.662;23.278;2023-01-06T05:52:14;7.77;;;2.07;;
19758;SDS011;10038;42.662;23.278;2023-01-06T05:54:41;3.90;;;2.40;;
19758;SDS011;10038;42.662;23.278;2023-01-06T05:57:08;4.40;;;2.20;;
19758;SDS011;10038;42.662;23.278;2023-01-06T05:59:35;4.20;;;2.40;;
19758;SDS011;10038;42.662;23.278;2023-01-06T06:02:03;2.80;;;2.30;;
19758;SDS011;10038;42.662;23.278;2023-01-06T06:04:29;1.93;;;1.70;;
19758;SDS011;10038;42.662;23.278;2023-01-06T06:06:56;3.70;;;2.30;;
19758;SDS011;10038;42.662;23.278;2023-01-06T06:09:24;3.77;;;2.40;;
19758;SDS011;10038;42.662;23.278;2023-01-06T06:11:52;2.90;;;2.43;;
19758;SDS011;10038;42.662;23.278;2023-01-06T06:14:19;3.40;;;1.90;;
19758;SDS011;10038;42.662;23.278;2023-01-06T06:16:46;4.30;;;2.60;;
19758;SDS011;10038;42.662;23.278;2023-01-06T06:19:13;2.90;;;1.87;;
19758;SDS011;10038;42.662;23.278;2023-01-06T06:21:40;4.00;;;2.30;;
19758;SDS011;10038;42.662;23.278;2023-01-06T06:24:06;3.80;;;2.50;;
19758;SDS011;10038;42.662;23.278;2023-01-06T06:26:34;2.07;;;1.87;;
19758;SDS011;10038;42.662;23.278;2023-01-06T06:29:03;5.10;;;2.67;;
19758;SDS011;10038;42.662;23.278;2023-01-06T06:31:29;2.90;;;2.27;;
19758;SDS011;10038;42.662;23.278;2023-01-06T06:33:56;3.80;;;2.30;;
19758;SDS011;10038;42.662;23.278;2023-01-06T06:36:24;2.77;;;1.97;;
19758;SDS011;10038;42.662;23.278;2023-01-06T06:38:51;5.40;;;2.43;;
19758;SDS011;10038;42.662;23.278;2023-01-06T06:41:18;4.77;;;1.80;;
19758;SDS011;10038;42.662;23.278;2023-01-06T06:43:46;3.10;;;1.93;;
19758;SDS011;10038;42.662;23.278;2023-01-06T06:46:13;3.40;;;2.03;;
19758;SDS011;10038;42.662;23.278;2023-01-06T06:48:39;3.23;;;2.17;;
19758;SDS011;10038;42.662;23.278;2023-01-06T06:51:06;4.70;;;2.60;;
19758;SDS011;10038;42.662;23.278;2023-01-06T06:53:33;2.90;;;1.90;;
19758;SDS011;10038;42.662;23.278;2023-01-06T06:55:59;3.30;;;2.17;;
19758;SDS011;10038;42.662;23.278;2023-01-06T06:58:26;3.10;;;1.77;;
19758;SDS011;10038;42.662;23.278;2023-01-06T07:00:54;4.87;;;2.37;;
19758;SDS011;10038;42.662;23.278;2023-01-06T07:03:20;2.27;;;1.70;;
19758;SDS011;10038;42.662;23.278;2023-01-06T07:05:47;4.03;;;1.80;;
19758;SDS011;10038;42.662;23.278;2023-01-06T07:08:14;3.20;;;1.80;;
19758;SDS011;10038;42.662;23.278;2023-01-06T07:10:41;3.90;;;2.00;;
19758;SDS011;10038;42.662;23.278;2023-01-06T07:13:08;2.90;;;2.23;;
19758;SDS011;10038;42.662;23.278;2023-01-06T07:15:34;3.53;;;2.50;;
19758;SDS011;10038;42.662;23.278;2023-01-06T07:18:03;2.30;;;1.60;;
19758;SDS011;10038;42.662;23.278;2023-01-06T07:20:30;3.60;;;1.63;;
19758;SDS011;10038;42.662;23.278;2023-01-06T07:22:56;5.70;;;2.30;;
19758;SDS011;10038;42.662;23.278;2023-01-06T07:25:23;2.20;;;1.87;;
19758;SDS011;10038;42.662;23.278;2023-01-06T07:27:52;4.27;;;2.30;;
19758;SDS011;10038;42.662;23.278;2023-01-06T07:30:19;2.83;;;1.80;;
19758;SDS011;10038;42.662;23.278;2023-01-06T07:32:46;2.30;;;1.77;;
19758;SDS011;10038;42.662;23.278;2023-01-06T07:35:13;4.80;;;1.67;;
19758;SDS011;10038;42.662;23.278;2023-01-06T07:37:40;2.87;;;1.80;;
19758;SDS011;10038;42.662;23.278;2023-01-06T07:40:07;2.13;;;1.50;;
19758;SDS011;10038;42.662;23.278;2023-01-06T07:42:33;3.73;;;2.00;;
19758;SDS011;10038;42.662;23.278;2023-01-06T07:45:00;2.53;;;1.90;;
19758;SDS011;10038;42.662;23.278;2023-01-06T07:47:27;2.90;;;2.10;;
19758;SDS011;10038;42.662;23.278;2023-01-06T07:49:53;2.40;;;2.10;;
19758;SDS011;10038;42.662;23.278;2023-01-06T07:52:21;2.47;;;1.60;;
19758;SDS011;10038;42.662;23.278;2023-01-06T07:54:47;3.17;;;1.60;;
19758;SDS011;10038;42.662;23.278;2023-01-06T07:57:14;2.13;;;1.80;;
19758;SDS011;10038;42.662;23.278;2023-01-06T07:59:40;2.37;;;1.80;;
19758;SDS011;10038;42.662;23.278;2023-01-06T08:02:08;3.50;;;1.80;;
19758;SDS011;10038;42.662;23.278;2023-01-06T08:04:35;2.53;;;1.60;;
19758;SDS011;10038;42.662;23.278;2023-01-06T08:07:01;2.40;;;1.67;;
19758;SDS011;10038;42.662;23.278;2023-01-06T08:09:29;3.23;;;1.87;;
19758;SDS011;10038;42.662;23.278;2023-01-06T08:11:56;3.57;;;1.63;;
19758;SDS011;10038;42.662;23.278;2023-01-06T08:14:23;2.70;;;1.80;;
19758;SDS011;10038;42.662;23.278;2023-01-06T08:16:50;3.57;;;2.13;;
19758;SDS011;10038;42.662;23.278;2023-01-06T08:19:16;2.80;;;1.97;;
19758;SDS011;10038;42.662;23.278;2023-01-06T08:21:43;2.43;;;1.60;;
19758;SDS011;10038;42.662;23.278;2023-01-06T08:24:09;3.37;;;1.97;;
19758;SDS011;10038;42.662;23.278;2023-01-06T08:26:37;2.40;;;1.60;;
19758;SDS011;10038;42.662;23.278;2023-01-06T08:29:04;2.63;;;2.40;;
19758;SDS011;10038;42.662;23.278;2023-01-06T08:31:30;2.60;;;1.60;;
19758;SDS011;10038;42.662;23.278;2023-01-06T08:33:56;3.30;;;1.80;;
19758;SDS011;10038;42.662;23.278;2023-01-06T08:36:23;4.17;;;2.00;;
19758;SDS011;10038;42.662;23.278;2023-01-06T08:38:50;2.03;;;1.80;;
19758;SDS011;10038;42.662;23.278;2023-01-06T08:41:17;2.93;;;1.67;;
19758;SDS011;10038;42.662;23.278;2023-01-06T08:43:45;3.63;;;1.70;;
19758;SDS011;10038;42.662;23.278;2023-01-06T08:46:13;2.03;;;1.73;;
19758;SDS011;10038;42.662;23.278;2023-01-06T08:48:39;4.83;;;2.30;;
19758;SDS011;10038;42.662;23.278;2023-01-06T08:51:07;3.50;;;1.70;;
19758;SDS011;10038;42.662;23.278;2023-01-06T08:53:33;2.47;;;1.77;;
19758;SDS011;10038;42.662;23.278;2023-01-06T08:56:00;1.43;;;1.30;;
19758;SDS011;10038;42.662;23.278;2023-01-06T08:58:26;2.10;;;1.47;;
19758;SDS011;10038;42.662;23.278;2023-01-06T09:00:54;2.43;;;1.90;;
19758;SDS011;10038;42.662;23.278;2023-01-06T09:03:21;3.10;;;2.23;;
19758;SDS011;10038;42.662;23.278;2023-01-06T09:05:51;2.43;;;1.60;;
19758;SDS011;10038;42.662;23.278;2023-01-06T09:08:17;1.90;;;1.50;;
19758;SDS011;10038;42.662;23.278;2023-01-06T09:10:44;2.37;;;1.30;;
19758;SDS011;10038;42.662;23.278;2023-01-06T09:13:10;2.03;;;1.60;;
19758;SDS011;10038;42.662;23.278;2023-01-06T09:15:38;1.87;;;1.50;;
19758;SDS011;10038;42.662;23.278;2023-01-06T09:18:06;1.80;;;1.40;;
19758;SDS011;10038;42.662;23.278;2023-01-06T09:20:33;1.80;;;1.10;;
19758;SDS011;10038;42.662;23.278;2023-01-06T09:23:00;1.70;;;1.40;;
19758;SDS011;10038;42.662;23.278;2023-01-06T09:25:27;2.10;;;1.30;;
19758;SDS011;10038;42.662;23.278;2023-01-06T09:27:53;1.87;;;1.60;;
19758;SDS011;10038;42.662;23.278;2023-01-06T09:30:20;1.50;;;1.27;;
19758;SDS011;10038;42.662;23.278;2023-01-06T09:32:49;1.70;;;1.07;;
19758;SDS011;10038;42.662;23.278;2023-01-06T09:35:17;1.20;;;1.00;;
19758;SDS011;10038;42.662;23.278;2023-01-06T09:37:43;1.40;;;1.10;;
19758;SDS011;10038;42.662;23.278;2023-01-06T09:40:13;2.37;;;1.03;;
19758;SDS011;10038;42.662;23.278;2023-01-06T09:42:43;1.43;;;1.03;;
19758;SDS011;10038;42.662;23.278;2023-01-06T09:45:14;2.10;;;1.60;;
19758;SDS011;10038;42.662;23.278;2023-01-06T09:47:43;2.10;;;1.20;;
19758;SDS011;10038;42.662;23.278;2023-01-06T09:50:13;3.53;;;1.20;;
19758;SDS011;10038;42.662;23.278;2023-01-06T09:52:44;3.40;;;1.20;;
19758;SDS011;10038;42.662;23.278;2023-01-06T09:55:13;1.33;;;1.07;;
19758;SDS011;10038;42.662;23.278;2023-01-06T09:57:41;2.80;;;1.70;;
19758;SDS011;10038;42.662;23.278;2023-01-06T10:00:13;1.97;;;1.17;;
19758;SDS011;10038;42.662;23.278;2023-01-06T10:02:44;1.77;;;1.20;;
19758;SDS011;10038;42.662;23.278;2023-01-06T10:05:16;1.67;;;1.23;;
19758;SDS011;10038;42.662;23.278;2023-01-06T10:07:45;4.57;;;1.33;;
19758;SDS011;10038;42.662;23.278;2023-01-06T10:10:16;2.60;;;1.30;;
19758;SDS011;10038;42.662;23.278;2023-01-06T10:12:49;1.43;;;1.10;;
19758;SDS011;10038;42.662;23.278;2023-01-06T10:15:19;1.67;;;0.97;;
19758;SDS011;10038;42.662;23.278;2023-01-06T10:17:56;2.00;;;1.30;;
19758;SDS011;10038;42.662;23.278;2023-01-06T10:23:12;1.40;;;1.23;;
19758;SDS011;10038;42.662;23.278;2023-01-06T10:25:43;2.83;;;1.67;;
19758;SDS011;10038;42.662;23.278;2023-01-06T10:28:12;1.10;;;0.80;;
19758;SDS011;10038;42.662;23.278;2023-01-06T10:30:42;1.70;;;1.40;;
19758;SDS011;10038;42.662;23.278;2023-01-06T10:33:10;2.07;;;1.40;;
19758;SDS011;10038;42.662;23.278;2023-01-06T10:35:45;3.10;;;2.13;;
19758;SDS011;10038;42.662;23.278;2023-01-06T10:38:13;2.93;;;2.63;;
19758;SDS011;10038;42.662;23.278;2023-01-06T10:40:39;2.33;;;1.90;;
19758;SDS011;10038;42.662;23.278;2023-01-06T10:43:07;2.63;;;1.40;;
19758;SDS011;10038;42.662;23.278;2023-01-06T10:45:35;3.50;;;2.27;;
19758;SDS011;10038;42.662;23.278;2023-01-06T10:48:03;3.00;;;2.50;;
19758;SDS011;10038;42.662;23.278;2023-01-06T10:50:30;2.80;;;2.37;;
19758;SDS011;10038;42.662;23.278;2023-01-06T10:52:58;3.53;;;2.63;;
19758;SDS011;10038;42.662;23.278;2023-01-06T10:55:31;2.80;;;1.37;;
19758;SDS011;10038;42.662;23.278;2023-01-06T10:58:01;3.60;;;2.23;;
19758;SDS011;10038;42.662;23.278;2023-01-06T11:00:30;3.13;;;2.10;;
19758;SDS011;10038;42.662;23.278;2023-01-06T11:03:01;1.57;;;1.47;;
19758;SDS011;10038;42.662;23.278;2023-01-06T11:05:29;2.00;;;1.43;;
19758;SDS011;10038;42.662;23.278;2023-01-06T11:07:56;1.50;;;1.40;;
19758;SDS011;10038;42.662;23.278;2023-01-06T11:10:28;2.17;;;1.50;;
19758;SDS011;10038;42.662;23.278;2023-01-06T11:12:57;1.57;;;1.43;;
19758;SDS011;10038;42.662;23.278;2023-01-06T11:15:25;1.70;;;1.40;;
19758;SDS011;10038;42.662;23.278;2023-01-06T11:17:54;3.27;;;1.63;;
19758;SDS011;10038;42.662;23.278;2023-01-06T11:20:27;2.40;;;1.73;;
19758;SDS011;10038;42.662;23.278;2023-01-06T11:22:54;2.30;;;1.63;;
19758;SDS011;10038;42.662;23.278;2023-01-06T11:25:22;2.30;;;1.73;;
19758;SDS011;10038;42.662;23.278;2023-01-06T11:30:38;2.40;;;1.67;;
19758;SDS011;10038;42.662;23.278;2023-01-06T11:33:11;3.10;;;2.43;;
19758;SDS011;10038;42.662;23.278;2023-01-06T11:35:38;3.73;;;1.83;;
19758;SDS011;10038;42.662;23.278;2023-01-06T11:38:05;3.83;;;1.83;;
19758;SDS011;10038;42.662;23.278;2023-01-06T11:40:32;2.93;;;1.80;;
19758;SDS011;10038;42.662;23.278;2023-01-06T11:42:59;4.23;;;2.67;;
19758;SDS011;10038;42.662;23.278;2023-01-06T11:45:28;4.13;;;2.73;;
19758;SDS011;10038;42.662;23.278;2023-01-06T11:47:56;3.77;;;1.90;;
19758;SDS011;10038;42.662;23.278;2023-01-06T11:50:23;2.03;;;1.67;;
19758;SDS011;10038;42.662;23.278;2023-01-06T11:52:56;3.10;;;1.63;;
19758;SDS011;10038;42.662;23.278;2023-01-06T11:55:23;3.27;;;1.60;;
19758;SDS011;10038;42.662;23.278;2023-01-06T11:57:53;1.80;;;1.60;;
19758;SDS011;10038;42.662;23.278;2023-01-06T12:00:24;5.43;;;2.20;;
19758;SDS011;10038;42.662;23.278;2023-01-06T12:03:01;4.33;;;1.60;;
19758;SDS011;10038;42.662;23.278;2023-01-06T12:05:32;2.50;;;2.03;;
19758;SDS011;10038;42.662;23.278;2023-01-06T12:08:01;4.87;;;2.23;;
19758;SDS011;10038;42.662;23.278;2023-01-06T12:10:30;2.57;;;2.10;;
19758;SDS011;10038;42.662;23.278;2023-01-06T12:12:58;2.20;;;2.00;;
19758;SDS011;10038;42.662;23.278;2023-01-06T12:15:26;2.43;;;1.80;;
19758;SDS011;10038;42.662;23.278;2023-01-06T12:17:55;3.03;;;1.93;;
19758;SDS011;10038;42.662;23.278;2023-01-06T12:20:25;2.37;;;1.60;;
19758;SDS011;10038;42.662;23.278;2023-01-06T12:22:53;2.50;;;1.90;;
19758;SDS011;10038;42.662;23.278;2023-01-06T12:25:21;2.13;;;1.60;;
19758;SDS011;10038;42.662;23.278;2023-01-06T12:27:49;2.20;;;1.90;;
19758;SDS011;10038;42.662;23.278;2023-01-06T12:30:17;2.67;;;2.00;;
19758;SDS011;10038;42.662;23.278;2023-01-06T12:32:46;8.80;;;5.93;;
19758;SDS011;10038;42.662;23.278;2023-01-06T12:35:15;10.13;;;6.70;;
19758;SDS011;10038;42.662;23.278;2023-01-06T12:37:46;10.43;;;6.20;;
19758;SDS011;10038;42.662;23.278;2023-01-06T12:40:14;5.73;;;3.50;;
19758;SDS011;10038;42.662;23.278;2023-01-06T12:42:46;3.30;;;2.90;;
19758;SDS011;10038;42.662;23.278;2023-01-06T12:45:18;2.30;;;2.10;;
19758;SDS011;10038;42.662;23.278;2023-01-06T12:47:47;4.23;;;2.70;;
19758;SDS011;10038;42.662;23.278;2023-01-06T12:50:16;3.20;;;2.23;;
19758;SDS011;10038;42.662;23.278;2023-01-06T12:52:48;3.70;;;2.00;;
19758;SDS011;10038;42.662;23.278;2023-01-06T12:55:17;5.77;;;2.40;;
19758;SDS011;10038;42.662;23.278;2023-01-06T12:57:48;2.57;;;2.33;;
19758;SDS011;10038;42.662;23.278;2023-01-06T13:03:03;2.40;;;2.00;;
19758;SDS011;10038;42.662;23.278;2023-01-06T13:05:45;2.60;;;2.07;;
19758;SDS011;10038;42.662;23.278;2023-01-06T13:08:20;2.83;;;1.90;;
19758;SDS011;10038;42.662;23.278;2023-01-06T13:10:51;2.80;;;1.73;;
19758;SDS011;10038;42.662;23.278;2023-01-06T13:16:14;3.70;;;1.50;;
19758;SDS011;10038;42.662;23.278;2023-01-06T13:18:43;3.50;;;2.60;;
19758;SDS011;10038;42.662;23.278;2023-01-06T13:21:12;4.80;;;3.70;;
19758;SDS011;10038;42.662;23.278;2023-01-06T13:23:49;11.60;;;7.40;;
19758;SDS011;10038;42.662;23.278;2023-01-06T13:26:25;3.20;;;2.33;;
19758;SDS011;10038;42.662;23.278;2023-01-06T13:28:58;4.40;;;3.23;;
19758;SDS011;10038;42.662;23.278;2023-01-06T13:31:34;3.53;;;2.50;;
19758;SDS011;10038;42.662;23.278;2023-01-06T13:37:09;3.37;;;2.10;;
19758;SDS011;10038;42.662;23.278;2023-01-06T13:39:42;5.67;;;2.60;;
19758;SDS011;10038;42.662;23.278;2023-01-06T13:42:12;6.10;;;3.33;;
19758;SDS011;10038;42.662;23.278;2023-01-06T13:44:39;2.60;;;2.30;;
19758;SDS011;10038;42.662;23.278;2023-01-06T13:47:07;2.93;;;2.20;;
19758;SDS011;10038;42.662;23.278;2023-01-06T13:49:34;7.73;;;4.60;;
19758;SDS011;10038;42.662;23.278;2023-01-06T13:52:01;3.87;;;2.93;;
19758;SDS011;10038;42.662;23.278;2023-01-06T13:57:21;2.93;;;2.00;;
19758;SDS011;10038;42.662;23.278;2023-01-06T13:59:50;7.17;;;2.80;;
19758;SDS011;10038;42.662;23.278;2023-01-06T14:05:00;2.53;;;1.80;;
19758;SDS011;10038;42.662;23.278;2023-01-06T14:07:30;2.60;;;2.20;;
19758;SDS011;10038;42.662;23.278;2023-01-06T14:09:57;4.60;;;2.77;;
19758;SDS011;10038;42.662;23.278;2023-01-06T14:12:25;2.70;;;2.33;;
19758;SDS011;10038;42.662;23.278;2023-01-06T14:14:55;8.60;;;3.10;;
19758;SDS011;10038;42.662;23.278;2023-01-06T14:17:26;4.07;;;3.30;;
19758;SDS011;10038;42.662;23.278;2023-01-06T14:19:53;10.80;;;2.90;;
19758;SDS011;10038;42.662;23.278;2023-01-06T14:22:20;2.57;;;2.30;;
19758;SDS011;10038;42.662;23.278;2023-01-06T14:24:47;2.73;;;2.30;;
19758;SDS011;10038;42.662;23.278;2023-01-06T14:27:15;5.30;;;3.07;;
19758;SDS011;10038;42.662;23.278;2023-01-06T14:29:53;7.80;;;2.30;;
19758;SDS011;10038;42.662;23.278;2023-01-06T14:35:11;3.50;;;2.50;;
19758;SDS011;10038;42.662;23.278;2023-01-06T14:37:40;4.70;;;2.97;;
19758;SDS011;10038;42.662;23.278;2023-01-06T14:40:14;4.00;;;2.70;;
19758;SDS011;10038;42.662;23.278;2023-01-06T14:42:42;3.10;;;2.50;;
19758;SDS011;10038;42.662;23.278;2023-01-06T14:45:13;5.70;;;2.57;;
19758;SDS011;10038;42.662;23.278;2023-01-06T14:47:43;5.37;;;4.00;;
19758;SDS011;10038;42.662;23.278;2023-01-06T14:50:12;3.30;;;2.73;;
19758;SDS011;10038;42.662;23.278;2023-01-06T14:52:40;5.60;;;3.53;;
19758;SDS011;10038;42.662;23.278;2023-01-06T14:55:08;7.73;;;3.13;;
19758;SDS011;10038;42.662;23.278;2023-01-06T14:57:36;7.13;;;3.10;;
19758;SDS011;10038;42.662;23.278;2023-01-06T15:00:05;5.63;;;3.20;;
19758;SDS011;10038;42.662;23.278;2023-01-06T15:02:33;6.47;;;3.30;;
19758;SDS011;10038;42.662;23.278;2023-01-06T15:05:00;4.43;;;3.17;;
19758;SDS011;10038;42.662;23.278;2023-01-06T15:07:26;7.17;;;4.37;;
19758;SDS011;10038;42.662;23.278;2023-01-06T15:09:53;6.97;;;3.73;;